createdAt,value
2018-09-15T00:00:32.317Z,1014.02
2018-09-15T00:01:32.716Z,1014.00
2018-09-15T00:02:33.084Z,1013.99
2018-09-15T00:03:32.739Z,1013.96
2018-09-15T00:04:33.076Z,1013.95
2018-09-15T00:05:32.364Z,1013.98
2018-09-15T00:06:32.698Z,1013.95
2018-09-15T00:07:33.050Z,1014.01
2018-09-15T00:08:32.754Z,1013.99
2018-09-15T00:09:33.058Z,1013.99
2018-09-15T00:10:32.342Z,1014.00
2018-09-15T00:11:32.659Z,1014.02
2018-09-15T00:12:32.643Z,1013.99
2018-09-15T00:13:33.036Z,1013.98
2018-09-15T00:14:33.029Z,1014.00
2018-09-15T00:15:32.392Z,1014.02
2018-09-15T00:16:32.653Z,1014.02
2018-09-15T00:17:33.037Z,1014.04
2018-09-15T00:18:34.562Z,1014.01
2018-09-15T00:19:33.029Z,1014.00
2018-09-15T00:20:32.282Z,1014.04
2018-09-15T00:21:32.955Z,1014.07
2018-09-15T00:22:33.003Z,1014.10
2018-09-15T00:23:33.021Z,1014.11
2018-09-15T00:24:33.120Z,1014.08
2018-09-15T00:25:33.060Z,1014.06
2018-09-15T00:26:33.135Z,1014.08
2018-09-15T00:27:32.956Z,1014.07
2018-09-15T00:28:32.973Z,1014.07
2018-09-15T00:29:32.960Z,1014.11
2018-09-15T00:30:34.917Z,1014.09
2018-09-15T00:31:32.965Z,1014.13
2018-09-15T00:32:33.039Z,1014.13
2018-09-15T00:33:33.033Z,1014.09
2018-09-15T00:34:32.946Z,1014.09
2018-09-15T00:35:32.961Z,1014.11
2018-09-15T00:36:33.057Z,1014.10
2018-09-15T00:37:33.037Z,1014.15
2018-09-15T00:38:33.031Z,1014.15
2018-09-15T00:39:33.035Z,1014.13
2018-09-15T00:40:33.039Z,1014.08
2018-09-15T00:41:33.015Z,1014.13
2018-09-15T00:42:33.009Z,1014.12
2018-09-15T00:43:32.949Z,1014.16
2018-09-15T00:44:33.032Z,1014.14
2018-09-15T00:45:33.059Z,1014.14
2018-09-15T00:46:32.968Z,1014.14
2018-09-15T00:47:32.982Z,1014.17
2018-09-15T00:48:33.048Z,1014.19
2018-09-15T00:49:32.999Z,1014.16
2018-09-15T00:52:06.214Z,1014.25
2018-09-15T00:53:06.601Z,1014.24
2018-09-15T00:55:00.599Z,1014.20
2018-09-15T00:56:00.689Z,1014.16
2018-09-15T00:57:54.748Z,1014.22
2018-09-15T00:58:54.782Z,1014.19
2018-09-15T01:00:49.199Z,1014.19
2018-09-15T01:01:49.508Z,1014.18
2018-09-15T01:03:46.972Z,1014.20
2018-09-15T01:04:46.922Z,1014.20
2018-09-15T01:05:47.543Z,1014.19
2018-09-15T01:06:46.964Z,1014.21
2018-09-15T01:07:47.545Z,1014.14
2018-09-15T01:08:46.573Z,1014.15
2018-09-15T01:09:46.949Z,1014.16
2018-09-15T01:10:47.532Z,1014.11
2018-09-15T01:11:46.948Z,1014.13
2018-09-15T01:12:47.512Z,1014.15
2018-09-15T01:13:47.504Z,1014.13
2018-09-15T01:14:47.553Z,1014.09
2018-09-15T01:15:47.528Z,1014.12
2018-09-15T01:16:47.531Z,1014.11
2018-09-15T01:17:47.525Z,1014.07
2018-09-15T01:18:47.578Z,1014.05
2018-09-15T01:19:47.517Z,1014.12
2018-09-15T01:20:47.536Z,1014.11
2018-09-15T01:21:47.571Z,1014.07
2018-09-15T01:22:47.501Z,1014.11
2018-09-15T01:23:47.554Z,1014.05
2018-09-15T01:24:47.576Z,1014.06
2018-09-15T01:25:47.527Z,1014.05
2018-09-15T01:26:48.219Z,1014.05
2018-09-15T01:27:47.554Z,1014.04
2018-09-15T01:28:47.530Z,1014.03
2018-09-15T01:29:47.594Z,1014.05
2018-09-15T01:30:47.493Z,1014.05
2018-09-15T01:31:47.576Z,1014.09
2018-09-15T01:32:47.235Z,1014.03
2018-09-15T01:33:49.128Z,1014.00
2018-09-15T01:34:47.354Z,1013.98
2018-09-15T01:35:49.308Z,1014.02
2018-09-15T01:36:46.956Z,1014.02
2018-09-15T01:37:47.436Z,1014.01
2018-09-15T01:38:49.115Z,1014.05
2018-09-15T01:39:47.363Z,1014.05
2018-09-15T01:40:47.354Z,1014.01
2018-09-15T01:41:47.347Z,1014.00
2018-09-15T01:42:47.274Z,1014.04
2018-09-15T01:43:47.271Z,1014.03
2018-09-15T01:44:47.240Z,1014.07
2018-09-15T01:45:47.129Z,1014.10
2018-09-15T01:46:47.268Z,1014.06
2018-09-15T01:47:47.253Z,1014.14
2018-09-15T01:48:47.186Z,1014.08
2018-09-15T01:49:47.149Z,1014.08
2018-09-15T01:50:47.055Z,1014.10
2018-09-15T01:51:47.145Z,1014.12
2018-09-15T01:52:47.123Z,1014.08
2018-09-15T01:53:47.064Z,1014.10
2018-09-15T01:54:47.126Z,1014.15
2018-09-15T01:55:47.217Z,1014.14
2018-09-15T01:56:47.123Z,1014.13
2018-09-15T01:57:47.114Z,1014.14
2018-09-15T01:58:47.111Z,1014.14
2018-09-15T01:59:47.096Z,1014.13
2018-09-15T02:00:47.117Z,1014.12
2018-09-15T02:01:47.194Z,1014.19
2018-09-15T02:02:47.125Z,1014.13
2018-09-15T02:03:46.803Z,1014.11
2018-09-15T02:04:47.126Z,1014.13
2018-09-15T02:05:47.086Z,1014.14
2018-09-15T02:06:47.176Z,1014.13
2018-09-15T02:07:47.168Z,1014.12
2018-09-15T02:08:47.132Z,1014.15
2018-09-15T02:09:47.197Z,1014.14
2018-09-15T02:10:47.143Z,1014.15
2018-09-15T02:11:47.161Z,1014.11
2018-09-15T02:12:48.896Z,1014.10
2018-09-15T02:13:47.186Z,1014.07
2018-09-15T02:14:47.115Z,1014.08
2018-09-15T02:15:49.001Z,1014.04
2018-09-15T02:16:47.133Z,1014.03
2018-09-15T02:18:47.127Z,1014.00
2018-09-15T02:19:47.125Z,1014.00
2018-09-15T02:20:47.086Z,1014.01
2018-09-15T02:21:47.066Z,1014.02
2018-09-15T02:22:47.205Z,1014.03
2018-09-15T02:23:47.016Z,1014.03
2018-09-15T02:24:47.028Z,1014.05
2018-09-15T02:25:47.016Z,1014.05
2018-09-15T02:26:47.050Z,1014.04
2018-09-15T02:27:46.983Z,1014.07
2018-09-15T02:28:48.029Z,1014.05
2018-09-15T02:29:47.006Z,1014.05
2018-09-15T02:30:47.738Z,1014.03
2018-09-15T02:31:47.056Z,1014.05
2018-09-15T02:32:47.050Z,1014.03
2018-09-15T02:33:47.060Z,1014.04
2018-09-15T02:34:47.054Z,1014.05
2018-09-15T02:35:47.053Z,1014.04
2018-09-15T02:36:47.028Z,1014.05
2018-09-15T02:37:47.096Z,1014.01
2018-09-15T02:38:47.097Z,1013.98
2018-09-15T02:39:47.055Z,1014.05
2018-09-15T02:40:47.097Z,1014.08
2018-09-15T02:41:47.076Z,1014.08
2018-09-15T02:42:47.021Z,1014.06
2018-09-15T02:43:47.098Z,1014.07
2018-09-15T02:44:47.118Z,1014.05
2018-09-15T02:45:47.039Z,1014.02
2018-09-15T02:46:47.056Z,1014.03
2018-09-15T02:47:47.055Z,1014.06
2018-09-15T02:48:47.097Z,1014.05
2018-09-15T02:49:47.070Z,1014.01
2018-09-15T02:50:48.883Z,1014.00
2018-09-15T02:51:47.094Z,1014.02
2018-09-15T02:52:49.248Z,1014.04
2018-09-15T02:53:47.093Z,1014.03
2018-09-15T02:54:47.360Z,1014.02
2018-09-15T02:55:47.107Z,1014.06
2018-09-15T02:56:49.249Z,1014.04
2018-09-15T02:57:47.048Z,1014.09
2018-09-15T02:58:47.005Z,1014.05
2018-09-15T02:59:47.043Z,1014.09
2018-09-15T03:00:46.952Z,1014.07
2018-09-15T03:01:46.990Z,1014.11
2018-09-15T03:02:47.071Z,1014.10
2018-09-15T03:03:47.082Z,1014.14
2018-09-15T03:04:47.011Z,1014.16
2018-09-15T03:05:47.048Z,1014.21
2018-09-15T03:06:47.056Z,1014.23
2018-09-15T03:07:47.035Z,1014.22
2018-09-15T03:08:47.013Z,1014.18
2018-09-15T03:09:47.030Z,1014.20
2018-09-15T03:10:47.081Z,1014.22
2018-09-15T03:11:47.038Z,1014.18
2018-09-15T03:12:47.052Z,1014.17
2018-09-15T03:13:46.988Z,1014.19
2018-09-15T03:14:47.046Z,1014.17
2018-09-15T03:15:47.059Z,1014.21
2018-09-15T03:16:47.018Z,1014.19
2018-09-15T03:17:47.059Z,1014.20
2018-09-15T03:18:47.109Z,1014.24
2018-09-15T03:19:47.062Z,1014.25
2018-09-15T03:20:47.039Z,1014.27
2018-09-15T03:21:48.897Z,1014.23
2018-09-15T03:22:47.052Z,1014.23
2018-09-15T03:23:47.117Z,1014.21
2018-09-15T03:24:47.045Z,1014.20
2018-09-15T03:25:47.020Z,1014.23
2018-09-15T03:26:47.066Z,1014.21
2018-09-15T03:27:47.109Z,1014.22
2018-09-15T03:28:49.065Z,1014.21
2018-09-15T03:29:48.914Z,1014.25
2018-09-15T03:30:47.044Z,1014.23
2018-09-15T03:31:47.108Z,1014.21
2018-09-15T03:32:47.026Z,1014.22
2018-09-15T03:33:47.058Z,1014.26
2018-09-15T03:34:47.028Z,1014.22
2018-09-15T03:37:19.710Z,1014.26
2018-09-15T03:38:19.753Z,1014.23
2018-09-15T03:40:14.429Z,1014.25
2018-09-15T03:41:14.933Z,1014.25
2018-09-15T03:43:09.108Z,1014.23
2018-09-15T03:44:09.211Z,1014.23
2018-09-15T03:46:02.955Z,1014.22
2018-09-15T03:47:03.291Z,1014.20
2018-09-15T03:48:58.278Z,1014.23
2018-09-15T03:49:58.417Z,1014.24
2018-09-15T03:51:52.328Z,1014.30
2018-09-15T03:52:53.070Z,1014.23
2018-09-15T03:54:47.567Z,1014.24
2018-09-15T03:55:47.744Z,1014.28
2018-09-15T03:57:41.602Z,1014.28
2018-09-15T03:58:42.357Z,1014.26
2018-09-15T04:00:36.598Z,1014.27
2018-09-15T04:01:36.680Z,1014.30
2018-09-15T04:03:30.877Z,1014.29
2018-09-15T04:04:31.285Z,1014.36
2018-09-15T04:06:25.845Z,1014.35
2018-09-15T04:07:26.012Z,1014.34
2018-09-15T04:09:20.581Z,1014.32
2018-09-15T04:10:20.168Z,1014.43
2018-09-15T04:12:14.714Z,1014.40
2018-09-15T04:13:14.746Z,1014.43
2018-09-15T04:15:08.963Z,1014.47
2018-09-15T04:16:09.341Z,1014.47
2018-09-15T04:18:03.455Z,1014.40
2018-09-15T04:19:03.487Z,1014.42
2018-09-15T04:20:57.437Z,1014.47
2018-09-15T04:21:57.717Z,1014.45
2018-09-15T04:23:52.758Z,1014.49
2018-09-15T04:24:52.882Z,1014.50
2018-09-15T04:26:46.377Z,1014.54
2018-09-15T04:27:46.553Z,1014.51
2018-09-15T04:29:41.141Z,1014.51
2018-09-15T04:30:41.234Z,1014.53
2018-09-15T04:32:35.601Z,1014.53
2018-09-15T04:33:35.928Z,1014.59
2018-09-15T04:35:30.836Z,1014.54
2018-09-15T04:36:31.075Z,1014.54
2018-09-15T04:38:24.791Z,1014.60
2018-09-15T04:39:25.199Z,1014.58
2018-09-15T04:40:25.135Z,1014.58
2018-09-15T04:41:25.100Z,1014.62
2018-09-15T04:42:26.998Z,1014.54
2018-09-15T04:43:25.176Z,1014.58
2018-09-15T04:44:25.157Z,1014.56
2018-09-15T04:45:25.221Z,1014.58
2018-09-15T04:46:25.195Z,1014.61
2018-09-15T04:47:25.169Z,1014.58
2018-09-15T04:48:25.214Z,1014.63
2018-09-15T04:49:27.371Z,1014.61
2018-09-15T04:50:27.241Z,1014.61
2018-09-15T04:51:25.179Z,1014.63
2018-09-15T04:52:25.212Z,1014.62
2018-09-15T04:53:25.147Z,1014.62
2018-09-15T04:54:25.204Z,1014.62
2018-09-15T04:55:25.206Z,1014.62
2018-09-15T04:56:25.192Z,1014.61
2018-09-15T04:57:25.145Z,1014.62
2018-09-15T04:58:25.195Z,1014.61
2018-09-15T04:59:25.239Z,1014.65
2018-09-15T05:00:25.138Z,1014.67
2018-09-15T05:01:25.174Z,1014.68
2018-09-15T05:02:25.169Z,1014.67
2018-09-15T05:03:25.165Z,1014.68
2018-09-15T05:04:25.208Z,1014.67
2018-09-15T05:05:25.207Z,1014.69
2018-09-15T05:06:25.197Z,1014.73
2018-09-15T05:07:25.386Z,1014.72
2018-09-15T05:08:25.211Z,1014.75
2018-09-15T05:09:25.206Z,1014.68
2018-09-15T05:10:25.198Z,1014.75
2018-09-15T05:11:25.196Z,1014.75
2018-09-15T05:12:25.201Z,1014.72
2018-09-15T05:13:25.213Z,1014.70
2018-09-15T05:14:25.178Z,1014.69
2018-09-15T05:15:25.184Z,1014.70
2018-09-15T05:16:25.148Z,1014.75
2018-09-15T05:17:25.376Z,1014.76
2018-09-15T05:18:25.218Z,1014.74
2018-09-15T05:19:27.052Z,1014.72
2018-09-15T05:20:25.202Z,1014.76
2018-09-15T05:21:25.212Z,1014.77
2018-09-15T05:22:26.995Z,1014.76
2018-09-15T05:23:26.999Z,1014.83
2018-09-15T05:24:25.232Z,1014.78
2018-09-15T05:25:25.227Z,1014.79
2018-09-15T05:26:25.215Z,1014.82
2018-09-15T05:27:25.194Z,1014.80
2018-09-15T05:28:25.208Z,1014.84
2018-09-15T05:29:25.227Z,1014.88
2018-09-15T05:30:25.232Z,1014.84
2018-09-15T05:31:25.173Z,1014.84
2018-09-15T05:32:24.921Z,1014.87
2018-09-15T05:33:24.872Z,1014.84
2018-09-15T05:34:24.886Z,1014.84
2018-09-15T05:35:24.968Z,1014.88
2018-09-15T05:36:24.893Z,1014.84
2018-09-15T05:37:24.843Z,1014.84
2018-09-15T05:38:24.957Z,1014.89
2018-09-15T05:39:24.840Z,1014.90
2018-09-15T05:40:24.745Z,1014.87
2018-09-15T05:41:24.786Z,1014.89
2018-09-15T05:42:24.735Z,1014.86
2018-09-15T05:43:24.849Z,1014.89
2018-09-15T05:44:24.699Z,1014.91
2018-09-15T05:45:25.052Z,1014.93
2018-09-15T05:46:24.793Z,1014.90
2018-09-15T05:47:24.846Z,1014.99
2018-09-15T05:48:24.830Z,1014.99
2018-09-15T05:49:24.987Z,1014.96
2018-09-15T05:50:24.857Z,1014.99
2018-09-15T05:51:24.917Z,1014.96
2018-09-15T05:52:24.885Z,1014.99
2018-09-15T05:53:24.805Z,1014.98
2018-09-15T05:54:24.814Z,1015.07
2018-09-15T05:55:24.787Z,1015.04
2018-09-15T05:56:24.861Z,1015.04
2018-09-15T05:57:24.460Z,1015.12
2018-09-15T05:58:24.887Z,1015.10
2018-09-15T05:59:24.888Z,1015.09
2018-09-15T06:00:24.805Z,1015.05
2018-09-15T06:01:24.872Z,1015.05
2018-09-15T06:02:26.717Z,1015.05
2018-09-15T06:03:24.856Z,1015.08
2018-09-15T06:04:24.829Z,1015.08
2018-09-15T06:05:30.703Z,1015.11
2018-09-15T06:06:26.234Z,1015.11
2018-09-15T06:07:24.817Z,1015.09
2018-09-15T06:09:00.109Z,1015.11
2018-09-15T06:09:24.072Z,1015.11
2018-09-15T06:10:43.124Z,1015.13
2018-09-15T06:12:23.197Z,1015.11
2018-09-15T06:13:28.976Z,1015.10
2018-09-15T06:14:23.001Z,1015.13
2018-09-15T06:15:22.962Z,1015.14
2018-09-15T06:16:22.951Z,1015.15
2018-09-15T06:17:22.992Z,1015.18
2018-09-15T06:18:22.944Z,1015.15
2018-09-15T06:19:22.997Z,1015.20
2018-09-15T06:20:22.973Z,1015.16
2018-09-15T06:21:22.978Z,1015.19
2018-09-15T06:22:22.985Z,1015.24
2018-09-15T06:23:22.931Z,1015.25
2018-09-15T06:24:22.992Z,1015.32
2018-09-15T06:25:22.936Z,1015.35
2018-09-15T06:26:24.756Z,1015.37
2018-09-15T06:27:22.977Z,1015.36
2018-09-15T06:28:22.963Z,1015.37
2018-09-15T06:29:23.003Z,1015.36
2018-09-15T06:30:23.040Z,1015.35
2018-09-15T06:32:56.089Z,1015.35
2018-09-15T06:33:55.944Z,1015.37
2018-09-15T06:35:52.337Z,1015.35
2018-09-15T06:36:52.564Z,1015.38
2018-09-15T06:37:53.556Z,1015.38
2018-09-15T06:38:53.061Z,1015.37
2018-09-15T06:39:53.029Z,1015.41
2018-09-15T06:40:52.687Z,1015.41
2018-09-15T06:41:52.684Z,1015.42
2018-09-15T06:42:53.283Z,1015.39
2018-09-15T06:43:52.723Z,1015.44
2018-09-15T06:44:53.526Z,1015.47
2018-09-15T06:45:52.836Z,1015.48
2018-09-15T06:46:52.691Z,1015.54
2018-09-15T06:47:52.934Z,1015.56
2018-09-15T06:48:53.036Z,1015.56
2018-09-15T06:49:53.237Z,1015.62
2018-09-15T06:50:52.585Z,1015.66
2018-09-15T06:51:52.938Z,1015.66
2018-09-15T06:52:52.951Z,1015.66
2018-09-15T06:53:52.926Z,1015.68
2018-09-15T06:54:52.943Z,1015.71
2018-09-15T06:55:52.978Z,1015.68
2018-09-15T06:56:52.952Z,1015.71
2018-09-15T06:57:52.949Z,1015.63
2018-09-15T06:58:52.939Z,1015.67
2018-09-15T06:59:52.979Z,1015.72
2018-09-15T07:00:53.028Z,1015.65
2018-09-15T07:01:52.989Z,1015.70
2018-09-15T07:02:53.034Z,1015.72
2018-09-15T07:03:52.994Z,1015.76
2018-09-15T07:04:52.957Z,1015.82
2018-09-15T07:05:52.544Z,1015.79
2018-09-15T07:06:53.059Z,1015.81
2018-09-15T07:07:52.961Z,1015.80
2018-09-15T07:08:53.016Z,1015.82
2018-09-15T07:09:52.996Z,1015.82
2018-09-15T07:10:52.996Z,1015.83
2018-09-15T07:11:54.821Z,1015.82
2018-09-15T07:12:52.980Z,1015.88
2018-09-15T07:13:53.038Z,1015.86
2018-09-15T07:14:53.008Z,1015.89
2018-09-15T07:15:52.989Z,1015.89
2018-09-15T07:16:53.042Z,1015.90
2018-09-15T07:17:53.025Z,1015.86
2018-09-15T07:18:53.026Z,1015.91
2018-09-15T07:19:53.042Z,1016.00
2018-09-15T07:20:53.043Z,1015.92
2018-09-15T07:21:53.043Z,1015.95
2018-09-15T07:22:52.978Z,1015.94
2018-09-15T07:23:52.985Z,1016.02
2018-09-15T07:24:52.999Z,1015.96
2018-09-15T07:25:52.961Z,1015.94
2018-09-15T07:26:52.986Z,1015.96
2018-09-15T07:27:52.939Z,1015.93
2018-09-15T07:28:52.925Z,1015.92
2018-09-15T07:29:52.968Z,1015.97
2018-09-15T07:30:52.979Z,1015.96
2018-09-15T07:31:53.153Z,1015.91
2018-09-15T07:32:53.000Z,1015.92
2018-09-15T07:33:53.033Z,1015.96
2018-09-15T07:34:53.071Z,1015.99
2018-09-15T07:35:53.017Z,1016.00
2018-09-15T07:36:53.017Z,1015.99
2018-09-15T07:37:52.994Z,1015.90
2018-09-15T07:38:52.986Z,1015.95
2018-09-15T07:39:53.051Z,1016.00
2018-09-15T07:40:52.983Z,1015.96
2018-09-15T07:41:53.038Z,1015.97
2018-09-15T07:42:53.013Z,1015.97
2018-09-15T07:43:54.839Z,1015.96
2018-09-15T07:44:53.172Z,1015.97
2018-09-15T07:45:52.988Z,1015.96
2018-09-15T07:46:52.980Z,1015.98
2018-09-15T07:47:52.992Z,1015.98
2018-09-15T07:48:53.000Z,1016.02
2018-09-15T07:49:53.052Z,1015.99
2018-09-15T07:50:52.977Z,1016.07
2018-09-15T07:51:53.033Z,1016.09
2018-09-15T07:52:53.041Z,1016.03
2018-09-15T07:53:53.035Z,1016.03
2018-09-15T07:54:52.989Z,1016.06
2018-09-15T07:55:52.965Z,1016.12
2018-09-15T07:56:53.003Z,1016.11
2018-09-15T07:57:53.093Z,1016.12
2018-09-15T07:58:53.046Z,1016.11
2018-09-15T07:59:52.999Z,1016.09
2018-09-15T08:00:53.069Z,1016.13
2018-09-15T08:01:52.475Z,1016.19
2018-09-15T08:02:52.856Z,1016.18
2018-09-15T08:03:52.779Z,1016.18
2018-09-15T08:04:52.539Z,1016.25
2018-09-15T08:05:52.545Z,1016.27
2018-09-15T08:06:52.539Z,1016.30
2018-09-15T08:07:52.553Z,1016.34
2018-09-15T08:08:52.645Z,1016.38
2018-09-15T08:09:52.657Z,1016.37
2018-09-15T08:10:52.761Z,1016.40
2018-09-15T08:11:52.641Z,1016.42
2018-09-15T08:12:52.671Z,1016.43
2018-09-15T08:13:52.611Z,1016.37
2018-09-15T08:14:52.740Z,1016.42
2018-09-15T08:15:52.644Z,1016.43
2018-09-15T08:16:52.965Z,1016.42
2018-09-15T08:17:52.753Z,1016.41
2018-09-15T08:18:52.317Z,1016.45
2018-09-15T08:19:52.699Z,1016.47
2018-09-15T08:20:52.729Z,1016.48
2018-09-15T08:21:52.653Z,1016.45
2018-09-15T08:22:52.721Z,1016.49
2018-09-15T08:23:52.735Z,1016.53
2018-09-15T08:24:52.644Z,1016.47
2018-09-15T08:25:52.757Z,1016.54
2018-09-15T08:26:52.746Z,1016.51
2018-09-15T08:27:52.719Z,1016.49
2018-09-15T08:28:52.829Z,1016.48
2018-09-15T08:29:52.377Z,1016.46
2018-09-15T08:30:52.797Z,1016.47
2018-09-15T08:31:52.748Z,1016.48
2018-09-15T08:32:52.756Z,1016.53
2018-09-15T08:33:53.094Z,1016.49
2018-09-15T08:34:52.818Z,1016.55
2018-09-15T08:35:52.727Z,1016.57
2018-09-15T08:36:52.716Z,1016.60
2018-09-15T08:37:52.725Z,1016.56
2018-09-15T08:38:52.645Z,1016.54
2018-09-15T08:39:52.688Z,1016.57
2018-09-15T08:40:52.692Z,1016.55
2018-09-15T08:41:52.555Z,1016.63
2018-09-15T08:42:52.507Z,1016.55
2018-09-15T08:43:52.571Z,1016.50
2018-09-15T08:44:54.420Z,1016.54
2018-09-15T08:45:52.518Z,1016.59
2018-09-15T08:46:52.502Z,1016.57
2018-09-15T08:47:52.557Z,1016.58
2018-09-15T08:48:52.542Z,1016.60
2018-09-15T08:49:52.580Z,1016.60
2018-09-15T08:50:52.484Z,1016.59
2018-09-15T08:53:25.611Z,1016.67
2018-09-15T08:54:25.887Z,1016.67
2018-09-15T08:56:19.563Z,1016.60
2018-09-15T08:57:19.877Z,1016.64
2018-09-15T08:59:14.427Z,1016.68
2018-09-15T09:00:16.665Z,1016.66
2018-09-15T09:02:08.337Z,1016.64
2018-09-15T09:03:08.817Z,1016.68
2018-09-15T09:05:03.597Z,1016.73
2018-09-15T09:06:29.416Z,1016.70
2018-09-15T09:07:03.937Z,1016.71
2018-09-15T09:08:03.941Z,1016.74
2018-09-15T09:09:03.932Z,1016.76
2018-09-15T09:10:03.923Z,1016.75
2018-09-15T09:11:03.957Z,1016.74
2018-09-15T09:13:03.967Z,1016.80
2018-09-15T09:14:03.901Z,1016.81
2018-09-15T09:15:03.926Z,1016.82
2018-09-15T09:16:04.453Z,1016.83
2018-09-15T09:17:03.601Z,1016.81
2018-09-15T09:18:04.068Z,1016.78
2018-09-15T09:19:04.464Z,1016.80
2018-09-15T09:20:03.483Z,1016.82
2018-09-15T09:21:04.500Z,1016.81
2018-09-15T09:22:04.121Z,1016.84
2018-09-15T09:23:04.129Z,1016.85
2018-09-15T09:24:03.683Z,1016.85
2018-09-15T09:25:03.930Z,1016.81
2018-09-15T09:26:04.068Z,1016.89
2018-09-15T09:27:03.936Z,1016.90
2018-09-15T09:28:04.165Z,1016.95
2018-09-15T09:29:03.685Z,1016.95
2018-09-15T09:30:04.463Z,1016.97
2018-09-15T09:31:03.361Z,1016.88
2018-09-15T09:32:03.904Z,1016.85
2018-09-15T09:33:03.971Z,1016.82
2018-09-15T09:34:03.949Z,1016.86
2018-09-15T09:35:26.347Z,1016.88
2018-09-15T09:36:04.579Z,1016.90
2018-09-15T09:37:04.250Z,1016.91
2018-09-15T09:38:03.733Z,1016.95
2018-09-15T09:39:03.948Z,1016.99
2018-09-15T09:40:03.929Z,1016.98
2018-09-15T09:41:06.004Z,1016.94
2018-09-15T09:42:03.946Z,1016.98
2018-09-15T09:43:03.948Z,1016.92
2018-09-15T09:44:03.944Z,1016.96
2018-09-15T09:46:50.388Z,1016.97
2018-09-15T09:47:49.105Z,1016.97
2018-09-15T09:48:50.674Z,1016.99
2018-09-15T09:49:51.315Z,1017.04
2018-09-15T09:50:50.167Z,1016.95
2018-09-15T09:51:51.199Z,1017.01
2018-09-15T09:52:50.700Z,1017.01
2018-09-15T09:53:51.199Z,1016.99
2018-09-15T09:54:49.934Z,1017.04
2018-09-15T09:55:50.265Z,1017.04
2018-09-15T09:56:50.744Z,1017.03
2018-09-15T09:57:50.249Z,1017.01
2018-09-15T09:58:50.835Z,1017.01
2018-09-15T09:59:49.900Z,1016.96
2018-09-15T10:00:50.074Z,1017.02
2018-09-15T10:01:50.591Z,1016.97
2018-09-15T10:02:50.155Z,1016.95
2018-09-15T10:03:50.645Z,1016.97
2018-09-15T10:04:50.337Z,1016.89
2018-09-15T10:05:50.705Z,1016.85
2018-09-15T10:06:50.165Z,1016.90
2018-09-15T10:07:50.127Z,1016.94
2018-09-15T10:08:50.656Z,1016.93
2018-09-15T10:09:49.937Z,1016.92
2018-09-15T10:10:50.199Z,1016.90
2018-09-15T10:11:50.713Z,1016.89
2018-09-15T10:12:51.032Z,1016.89
2018-09-15T10:13:50.725Z,1016.90
2018-09-15T10:14:50.244Z,1016.89
2018-09-15T10:16:04.433Z,1017.00
2018-09-15T10:16:50.170Z,1016.96
2018-09-15T10:17:51.862Z,1017.01
2018-09-15T10:18:50.870Z,1016.99
2018-09-15T10:19:50.709Z,1016.96
2018-09-15T10:20:50.733Z,1016.97
2018-09-15T10:21:50.722Z,1016.97
2018-09-15T10:22:52.675Z,1017.02
2018-09-15T10:23:51.431Z,1017.04
2018-09-15T10:24:50.944Z,1017.02
2018-09-15T10:25:51.225Z,1017.00
2018-09-15T10:26:50.718Z,1017.01
2018-09-15T10:27:50.645Z,1017.01
2018-09-15T10:28:50.613Z,1017.00
2018-09-15T10:29:50.654Z,1017.01
2018-09-15T10:30:50.654Z,1017.02
2018-09-15T10:31:50.633Z,1017.01
2018-09-15T10:32:50.636Z,1017.02
2018-09-15T10:33:50.681Z,1017.05
2018-09-15T10:34:50.171Z,1017.05
2018-09-15T10:35:51.288Z,1017.05
2018-09-15T10:36:52.995Z,1017.02
2018-09-15T10:37:50.436Z,1017.04
2018-09-15T10:38:50.645Z,1017.04
2018-09-15T10:39:50.675Z,1017.06
2018-09-15T10:40:50.180Z,1017.07
2018-09-15T10:41:52.679Z,1016.95
2018-09-15T10:42:51.656Z,1017.04
2018-09-15T10:43:50.707Z,1017.05
2018-09-15T10:44:50.669Z,1017.00
2018-09-15T10:45:52.741Z,1017.03
2018-09-15T10:46:50.724Z,1017.03
2018-09-15T10:47:52.476Z,1017.07
2018-09-15T10:48:50.679Z,1017.06
2018-09-15T10:49:50.728Z,1017.08
2018-09-15T10:51:11.724Z,1017.11
2018-09-15T10:51:50.709Z,1017.11
2018-09-15T10:52:50.714Z,1017.10
2018-09-15T10:53:50.672Z,1017.15
2018-09-15T10:54:53.003Z,1017.12
2018-09-15T10:55:50.619Z,1017.09
2018-09-15T10:56:53.365Z,1017.14
2018-09-15T10:57:50.141Z,1017.07
2018-09-15T10:58:51.342Z,1017.13
2018-09-15T10:59:50.977Z,1017.10
2018-09-15T11:00:50.982Z,1017.10
2018-09-15T11:01:52.963Z,1017.10
2018-09-15T11:02:52.136Z,1017.10
2018-09-15T11:03:50.693Z,1017.12
2018-09-15T11:04:50.682Z,1017.13
2018-09-15T11:05:50.713Z,1017.09
2018-09-15T11:06:50.941Z,1017.11
2018-09-15T11:07:50.460Z,1017.04
2018-09-15T11:08:50.893Z,1017.05
2018-09-15T11:09:52.897Z,1017.04
